createdAt,value
2018-03-06T00:00:05.466Z,14.70
2018-03-06T00:02:33.801Z,14.93
2018-03-06T00:05:02.134Z,14.17
2018-03-06T00:07:30.444Z,15.90
2018-03-06T00:09:58.758Z,12.87
2018-03-06T00:12:27.065Z,14.93
2018-03-06T00:14:55.493Z,15.10
2018-03-06T00:17:23.800Z,17.20
2018-03-06T00:19:52.131Z,14.93
2018-03-06T00:22:21.227Z,14.47
2018-03-06T00:24:50.337Z,15.50
2018-03-06T00:27:19.528Z,12.33
2018-03-06T00:29:48.593Z,15.07
2018-03-06T00:32:16.902Z,17.20
2018-03-06T00:34:45.990Z,16.80
2018-03-06T00:37:14.334Z,16.40
2018-03-06T00:39:42.643Z,14.07
2018-03-06T00:42:10.974Z,14.57
2018-03-06T00:44:39.284Z,16.17
2018-03-06T00:47:07.947Z,15.93
2018-03-06T00:49:36.256Z,13.87
2018-03-06T00:52:04.593Z,14.97
2018-03-06T00:54:33.691Z,14.37
2018-03-06T00:57:02.952Z,15.50
2018-03-06T00:59:31.304Z,15.50
2018-03-06T01:01:59.626Z,19.13
2018-03-06T01:04:27.956Z,15.57
2018-03-06T01:06:56.454Z,19.10
2018-03-06T01:09:24.775Z,16.57
2018-03-06T01:11:53.096Z,16.03
2018-03-06T01:14:21.424Z,14.50
2018-03-06T01:16:49.742Z,16.20
2018-03-06T01:19:18.852Z,14.40
2018-03-06T01:21:47.164Z,18.97
2018-03-06T01:24:15.487Z,17.30
2018-03-06T01:26:44.580Z,14.37
2018-03-06T01:29:12.902Z,16.43
2018-03-06T01:31:41.208Z,19.23
2018-03-06T01:34:09.532Z,16.03
2018-03-06T01:36:38.625Z,16.33
2018-03-06T01:39:07.708Z,16.93
2018-03-06T01:41:36.032Z,17.50
2018-03-06T01:44:04.346Z,17.73
2018-03-06T01:46:32.709Z,14.73
2018-03-06T01:49:01.556Z,15.37
2018-03-06T01:51:29.846Z,14.80
2018-03-06T01:53:58.948Z,17.77
2018-03-06T01:56:28.042Z,17.83
2018-03-06T01:58:57.124Z,16.50
2018-03-06T02:01:25.436Z,17.57
2018-03-06T02:03:54.521Z,18.93
2018-03-06T02:06:23.600Z,17.33
2018-03-06T02:08:51.910Z,18.53
2018-03-06T02:11:20.986Z,16.67
2018-03-06T02:13:49.301Z,15.97
2018-03-06T02:16:17.649Z,17.00
2018-03-06T02:18:46.045Z,19.20
2018-03-06T02:21:15.975Z,19.97
2018-03-06T02:23:45.056Z,19.00
2018-03-06T02:26:13.366Z,22.27
2018-03-06T02:28:41.844Z,17.27
2018-03-06T02:31:10.170Z,16.13
2018-03-06T02:33:38.572Z,20.00
2018-03-06T02:36:07.004Z,17.47
2018-03-06T02:38:35.332Z,17.83
2018-03-06T02:41:03.664Z,17.57
2018-03-06T02:43:31.995Z,22.53
2018-03-06T02:46:12.194Z,16.40
2018-03-06T02:48:40.512Z,18.60
2018-03-06T02:51:08.844Z,21.17
2018-03-06T02:53:37.148Z,19.00
2018-03-06T02:56:05.680Z,19.10
2018-03-06T02:58:34.772Z,16.13
2018-03-06T03:01:03.100Z,23.17
2018-03-06T03:03:31.430Z,20.10
2018-03-06T03:05:59.801Z,18.10
2018-03-06T03:08:28.128Z,19.30
2018-03-06T03:10:57.251Z,17.73
2018-03-06T03:13:25.562Z,16.20
2018-03-06T03:15:53.890Z,19.50
2018-03-06T03:18:23.068Z,19.73
2018-03-06T03:20:51.374Z,21.70
2018-03-06T03:23:20.485Z,21.60
2018-03-06T03:25:48.788Z,17.20
2018-03-06T03:28:17.106Z,19.07
2018-03-06T03:30:45.427Z,18.07
2018-03-06T03:33:13.748Z,20.77
2018-03-06T03:35:42.066Z,19.63
2018-03-06T03:38:11.160Z,17.63
2018-03-06T03:40:40.260Z,17.73
2018-03-06T03:43:09.347Z,20.23
2018-03-06T03:45:37.713Z,19.90
2018-03-06T03:48:05.978Z,21.57
2018-03-06T03:50:34.322Z,22.70
2018-03-06T03:53:02.635Z,22.80
2018-03-06T03:55:31.043Z,23.00
2018-03-06T03:57:59.342Z,18.87
2018-03-06T04:00:28.423Z,21.00
2018-03-06T04:02:56.728Z,20.40
2018-03-06T04:05:25.801Z,20.07
2018-03-06T04:07:54.139Z,20.90
2018-03-06T04:10:22.453Z,23.00
2018-03-06T04:12:50.780Z,19.50
2018-03-06T04:15:19.847Z,23.13
2018-03-06T04:17:48.194Z,19.77
2018-03-06T04:20:16.540Z,22.97
2018-03-06T04:22:45.631Z,21.53
2018-03-06T04:25:14.723Z,23.47
2018-03-06T04:27:43.796Z,24.20
2018-03-06T04:30:12.119Z,21.00
2018-03-06T04:32:41.206Z,27.27
2018-03-06T04:35:10.277Z,24.90
2018-03-06T04:37:38.587Z,26.70
2018-03-06T04:40:07.670Z,23.67
2018-03-06T04:42:35.971Z,26.60
2018-03-06T04:45:05.060Z,28.27
2018-03-06T04:47:34.135Z,28.97
2018-03-06T04:50:02.449Z,26.20
2018-03-06T04:52:31.528Z,28.57
2018-03-06T04:54:59.954Z,25.17
2018-03-06T04:57:28.274Z,24.93
2018-03-06T04:59:56.598Z,26.20
2018-03-06T05:02:24.927Z,25.50
2018-03-06T05:04:53.290Z,26.23
2018-03-06T05:07:21.616Z,27.10
2018-03-06T05:09:49.932Z,29.10
2018-03-06T05:12:18.228Z,27.43
2018-03-06T05:14:46.617Z,27.43
2018-03-06T05:17:14.988Z,30.37
2018-03-06T05:19:43.332Z,30.13
2018-03-06T05:22:12.408Z,28.23
2018-03-06T05:24:40.721Z,32.00
2018-03-06T05:27:09.805Z,31.00
2018-03-06T05:29:38.145Z,31.10
2018-03-06T05:32:06.646Z,28.53
2018-03-06T05:34:34.982Z,34.20
2018-03-06T05:37:03.309Z,30.70
2018-03-06T05:39:31.620Z,30.20
2018-03-06T05:42:00.712Z,32.93
2018-03-06T05:44:29.863Z,35.53
2018-03-06T05:46:58.193Z,34.47
2018-03-06T05:49:26.507Z,35.90
2018-03-06T05:51:54.815Z,34.07
2018-03-06T05:54:23.145Z,36.43
2018-03-06T05:56:53.108Z,29.30
2018-03-06T05:59:21.445Z,33.53
2018-03-06T06:01:50.543Z,34.20
2018-03-06T06:04:19.622Z,34.20
2018-03-06T06:06:47.951Z,32.63
2018-03-06T06:09:16.271Z,35.27
2018-03-06T06:11:44.603Z,38.43
2018-03-06T06:14:13.680Z,38.03
2018-03-06T06:16:41.988Z,32.93
2018-03-06T06:19:10.289Z,38.63
2018-03-06T06:21:38.619Z,41.23
2018-03-06T06:24:06.908Z,41.77
2018-03-06T06:26:35.995Z,36.57
2018-03-06T06:29:04.325Z,36.33
2018-03-06T06:31:32.677Z,36.03
2018-03-06T06:34:01.750Z,35.50
2018-03-06T06:36:30.068Z,38.20
2018-03-06T06:38:59.143Z,35.87
2018-03-06T06:41:27.460Z,34.17
2018-03-06T06:43:55.769Z,34.70
2018-03-06T06:46:24.073Z,33.47
2018-03-06T06:48:52.404Z,33.17
2018-03-06T06:51:20.698Z,35.00
2018-03-06T06:53:49.421Z,32.93
2018-03-06T06:56:17.733Z,31.00
2018-03-06T06:58:47.784Z,33.40
2018-03-06T07:01:16.165Z,31.77
2018-03-06T07:03:44.476Z,34.60
2018-03-06T07:06:12.829Z,32.40
2018-03-06T07:08:41.265Z,36.10
2018-03-06T07:11:09.698Z,33.60
2018-03-06T07:13:38.013Z,32.83
2018-03-06T07:16:06.313Z,32.70
2018-03-06T07:18:35.364Z,33.60
2018-03-06T07:21:03.667Z,31.53
2018-03-06T07:23:31.983Z,28.50
2018-03-06T07:26:01.120Z,29.87
2018-03-06T07:28:29.450Z,29.20
2018-03-06T07:30:57.754Z,28.63
2018-03-06T07:33:26.851Z,28.73
2018-03-06T07:35:55.933Z,26.30
2018-03-06T07:38:24.223Z,26.93
2018-03-06T07:40:53.297Z,29.03
2018-03-06T07:43:21.637Z,29.47
2018-03-06T07:45:50.835Z,25.23
2018-03-06T07:48:19.149Z,28.83
2018-03-06T07:50:47.453Z,24.83
2018-03-06T07:53:15.751Z,26.07
2018-03-06T07:55:44.817Z,26.30
2018-03-06T07:58:13.417Z,27.07
2018-03-06T08:00:41.725Z,26.00
2018-03-06T08:03:10.090Z,25.40
2018-03-06T08:05:38.439Z,27.87
2018-03-06T08:08:06.754Z,25.10
2018-03-06T08:10:35.896Z,26.80
2018-03-06T08:13:04.183Z,26.90
2018-03-06T08:15:32.799Z,27.37
2018-03-06T08:18:01.872Z,27.97
2018-03-06T08:20:30.162Z,25.03
2018-03-06T08:22:58.485Z,25.43
2018-03-06T08:25:27.641Z,27.53
2018-03-06T08:27:55.948Z,27.83
2018-03-06T08:30:24.243Z,28.63
2018-03-06T08:32:53.313Z,26.97
2018-03-06T08:35:21.635Z,26.97
2018-03-06T08:37:50.711Z,24.67
2018-03-06T08:40:19.031Z,23.97
2018-03-06T08:42:47.362Z,25.53
2018-03-06T08:45:17.171Z,24.03
2018-03-06T08:47:45.480Z,25.60
2018-03-06T08:50:14.616Z,24.40
2018-03-06T08:52:42.923Z,24.70
2018-03-06T08:55:11.237Z,27.03
2018-03-06T08:57:39.557Z,26.30
2018-03-06T09:00:07.892Z,23.50
2018-03-06T09:02:36.217Z,26.20
2018-03-06T09:05:04.605Z,22.00
2018-03-06T09:07:32.969Z,23.57
2018-03-06T09:10:01.259Z,29.00
2018-03-06T09:12:29.583Z,24.23
2018-03-06T09:14:57.892Z,26.47
2018-03-06T09:17:27.005Z,25.27
2018-03-06T09:19:56.085Z,24.63
2018-03-06T09:22:24.399Z,24.10
2018-03-06T09:24:52.765Z,28.30
2018-03-06T09:27:21.845Z,27.57
2018-03-06T09:29:50.164Z,28.43
2018-03-06T09:32:18.749Z,28.40
2018-03-06T09:34:47.052Z,29.63
2018-03-06T09:37:15.411Z,34.33
2018-03-06T09:39:43.723Z,32.47
2018-03-06T09:42:12.022Z,24.57
2018-03-06T09:44:40.350Z,24.37
2018-03-06T09:47:08.661Z,24.67
2018-03-06T09:49:37.047Z,22.90
2018-03-06T09:52:05.381Z,26.07
2018-03-06T09:54:33.918Z,22.90
2018-03-06T09:57:02.231Z,22.07
2018-03-06T09:59:30.557Z,24.00
2018-03-06T10:01:58.888Z,22.93
2018-03-06T10:04:27.218Z,22.73
2018-03-06T10:06:55.532Z,24.43
2018-03-06T10:09:23.839Z,24.10
2018-03-06T10:11:52.154Z,24.10
2018-03-06T10:14:20.451Z,22.67
2018-03-06T10:16:48.778Z,24.93
2018-03-06T10:19:17.091Z,23.50
2018-03-06T10:21:46.223Z,23.40
2018-03-06T10:24:14.522Z,22.97
2018-03-06T10:26:42.835Z,24.30
2018-03-06T10:29:11.912Z,22.60
2018-03-06T10:31:40.239Z,22.70
2018-03-06T10:34:08.536Z,20.90
2018-03-06T10:36:36.993Z,22.73
2018-03-06T10:39:07.791Z,21.70
2018-03-06T10:41:36.140Z,22.40
2018-03-06T10:44:04.512Z,23.67
2018-03-06T10:46:32.819Z,22.90
2018-03-06T10:49:01.154Z,22.67
2018-03-06T10:51:29.658Z,22.83
2018-03-06T10:53:57.976Z,24.50
2018-03-06T10:56:26.301Z,23.20
2018-03-06T10:58:55.368Z,23.57
2018-03-06T11:01:25.644Z,23.33
2018-03-06T11:03:53.937Z,23.47
2018-03-06T11:06:22.303Z,23.03
2018-03-06T11:08:50.626Z,23.70
2018-03-06T11:11:18.985Z,27.47
2018-03-06T11:13:48.041Z,23.93
2018-03-06T11:16:17.122Z,23.50
2018-03-06T11:18:45.548Z,22.93
2018-03-06T11:21:13.860Z,24.37
2018-03-06T11:23:42.165Z,22.83
2018-03-06T11:26:10.472Z,24.37
2018-03-06T11:28:39.563Z,23.83
2018-03-06T11:31:08.728Z,23.10
2018-03-06T11:33:37.804Z,23.20
2018-03-06T11:36:06.120Z,24.00
2018-03-06T11:38:34.431Z,23.97
2018-03-06T11:41:02.767Z,24.07
2018-03-06T11:43:31.091Z,23.27
2018-03-06T11:46:00.173Z,24.17
2018-03-06T11:48:28.480Z,24.90
2018-03-06T11:50:56.796Z,24.10
2018-03-06T11:53:25.107Z,24.80
2018-03-06T11:55:53.411Z,24.60
2018-03-06T11:58:21.869Z,25.67
2018-03-06T12:00:50.237Z,24.30
2018-03-06T12:03:18.572Z,24.33
2018-03-06T12:05:46.892Z,25.63
2018-03-06T12:08:15.226Z,23.40
2018-03-06T12:10:44.316Z,22.57
2018-03-06T12:13:13.396Z,23.30
2018-03-06T12:15:41.696Z,24.00
2018-03-06T12:18:10.826Z,26.37
2018-03-06T12:20:39.202Z,23.03
2018-03-06T12:23:07.504Z,22.63
2018-03-06T12:25:35.821Z,23.80
2018-03-06T12:28:04.127Z,22.70
2018-03-06T12:30:33.214Z,21.23
2018-03-06T12:33:02.277Z,21.70
2018-03-06T12:35:30.582Z,19.93
2018-03-06T12:37:59.807Z,18.63
2018-03-06T12:40:28.128Z,18.63
2018-03-06T12:42:56.506Z,20.83
2018-03-06T12:45:24.818Z,18.40
2018-03-06T12:47:53.142Z,18.40
2018-03-06T12:50:21.458Z,18.37
2018-03-06T12:52:49.764Z,19.60
2018-03-06T12:55:18.084Z,20.43
2018-03-06T12:57:46.420Z,17.87
2018-03-06T13:00:14.724Z,17.50
2018-03-06T13:02:43.820Z,17.20
2018-03-06T13:05:12.904Z,15.73
2018-03-06T13:07:42.027Z,17.13
2018-03-06T13:10:11.118Z,17.60
2018-03-06T13:12:40.250Z,17.20
2018-03-06T13:15:08.562Z,17.00
2018-03-06T13:17:36.884Z,17.90
2018-03-06T13:20:05.958Z,17.73
2018-03-06T13:22:34.268Z,16.77
2018-03-06T13:25:03.719Z,18.37
2018-03-06T13:27:32.041Z,17.70
2018-03-06T13:30:02.151Z,17.20
2018-03-06T13:32:30.879Z,16.97
2018-03-06T13:35:00.926Z,16.57
2018-03-06T13:37:29.259Z,16.03
2018-03-06T13:39:58.390Z,17.70
2018-03-06T13:42:26.716Z,15.90
2018-03-06T13:44:55.248Z,16.67
2018-03-06T13:47:23.574Z,15.73
2018-03-06T13:49:51.893Z,14.07
2018-03-06T13:52:20.986Z,10.90
2018-03-06T13:54:50.115Z,10.43
2018-03-06T13:57:18.472Z,10.70
2018-03-06T13:59:47.576Z,9.53
2018-03-06T14:02:16.648Z,8.73
2018-03-06T14:04:45.792Z,9.83
2018-03-06T14:07:14.188Z,7.73
2018-03-06T14:09:42.504Z,6.30
2018-03-06T14:12:10.814Z,7.50
2018-03-06T14:14:39.886Z,6.23
2018-03-06T14:17:08.192Z,5.20
2018-03-06T14:19:37.267Z,4.67
2018-03-06T14:22:05.587Z,5.57
2018-03-06T14:24:33.901Z,4.80
2018-03-06T14:27:02.218Z,8.50
2018-03-06T14:29:30.587Z,7.80
2018-03-06T14:31:59.309Z,7.33
2018-03-06T14:34:28.400Z,6.17
2018-03-06T14:36:57.493Z,3.63
2018-03-06T14:39:25.808Z,3.13
2018-03-06T14:41:54.116Z,4.03
2018-03-06T14:44:22.686Z,3.53
2018-03-06T14:46:50.997Z,4.47
2018-03-06T14:49:19.318Z,5.13
2018-03-06T14:51:48.463Z,5.27
2018-03-06T14:54:16.770Z,3.53
2018-03-06T14:56:45.086Z,6.20
2018-03-06T14:59:14.152Z,5.90
2018-03-06T15:01:43.983Z,7.23
2018-03-06T15:04:13.052Z,3.47
2018-03-06T15:06:41.366Z,3.70
2018-03-06T15:09:09.670Z,5.27
2018-03-06T15:11:37.968Z,6.73
2018-03-06T15:14:06.268Z,3.07
2018-03-06T15:16:34.903Z,5.87
2018-03-06T15:19:03.974Z,5.43
2018-03-06T15:21:32.264Z,5.00
2018-03-06T15:24:00.603Z,4.20
2018-03-06T15:26:28.969Z,3.90
2018-03-06T15:28:57.266Z,4.60
2018-03-06T15:31:25.615Z,5.00
2018-03-06T15:33:53.915Z,4.60
2018-03-06T15:36:22.963Z,9.80
2018-03-06T15:38:51.258Z,7.67
2018-03-06T15:41:20.374Z,5.35
2018-03-06T15:43:48.728Z,4.43
2018-03-06T15:46:17.084Z,4.57
2018-03-06T15:48:45.566Z,4.47
2018-03-06T15:51:13.897Z,4.13
2018-03-06T15:53:43.043Z,3.17
2018-03-06T15:56:11.449Z,2.70
2018-03-06T15:58:40.589Z,4.13
2018-03-06T16:01:08.996Z,4.60
2018-03-06T16:03:37.322Z,4.53
2018-03-06T16:06:05.678Z,4.03
2018-03-06T16:08:34.053Z,4.30
2018-03-06T16:11:02.440Z,3.30
2018-03-06T16:13:30.804Z,4.63
2018-03-06T16:15:59.196Z,3.80
2018-03-06T16:18:27.671Z,3.20
2018-03-06T16:20:56.048Z,3.10
2018-03-06T16:23:24.431Z,9.50
2018-03-06T16:25:53.344Z,3.30
2018-03-06T16:28:21.741Z,6.23
2018-03-06T16:30:54.629Z,4.77
2018-03-06T16:33:24.766Z,7.93
2018-03-06T16:35:53.483Z,3.43
2018-03-06T16:38:23.854Z,4.03
2018-03-06T16:40:53.973Z,2.50
2018-03-06T16:43:26.323Z,2.57
2018-03-06T16:45:54.981Z,2.80
2018-03-06T16:48:23.458Z,3.57
2018-03-06T16:50:51.808Z,2.97
2018-03-06T16:53:20.193Z,5.20
2018-03-06T16:55:51.428Z,4.73
2018-03-06T16:58:20.638Z,5.17
2018-03-06T17:00:49.937Z,6.07
2018-03-06T17:03:20.464Z,3.93
2018-03-06T17:05:50.125Z,5.03
2018-03-06T17:08:19.337Z,2.33
2018-03-06T17:10:50.619Z,6.70
2018-03-06T17:13:22.901Z,4.87
2018-03-06T17:15:53.033Z,4.70
2018-03-06T17:18:21.396Z,4.73
2018-03-06T17:20:52.702Z,5.63
2018-03-06T17:23:21.587Z,8.10
2018-03-06T17:25:50.691Z,6.53
2018-03-06T17:28:23.223Z,3.90
2018-03-06T17:30:52.495Z,10.70
2018-03-06T17:33:23.409Z,5.53
2018-03-06T17:35:55.189Z,6.87
2018-03-06T17:38:26.476Z,7.37
2018-03-06T17:40:57.249Z,4.83
2018-03-06T17:43:31.277Z,5.77
2018-03-06T17:46:00.957Z,8.57
2018-03-06T17:48:30.728Z,5.30
2018-03-06T17:51:00.990Z,4.93
2018-03-06T17:53:31.984Z,4.13
2018-03-06T17:56:03.338Z,7.20
2018-03-06T17:58:33.379Z,4.90
2018-03-06T18:01:04.083Z,3.93
2018-03-06T18:03:34.130Z,6.20
2018-03-06T18:06:05.654Z,5.00
2018-03-06T18:08:36.295Z,17.10
2018-03-06T18:11:05.627Z,9.70
2018-03-06T18:13:33.966Z,8.10
2018-03-06T18:16:03.091Z,11.13
2018-03-06T18:18:32.263Z,6.63
2018-03-06T18:21:00.739Z,8.80
2018-03-06T18:23:29.097Z,9.93
2018-03-06T18:25:57.564Z,8.93
2018-03-06T18:28:25.885Z,9.77
2018-03-06T18:30:54.234Z,10.33
2018-03-06T18:33:22.700Z,12.70
2018-03-06T18:35:51.054Z,18.00
2018-03-06T18:38:19.405Z,22.27
2018-03-06T18:40:47.786Z,18.10
2018-03-06T18:43:16.204Z,14.33
2018-03-06T18:45:45.455Z,11.33
2018-03-06T18:48:13.786Z,11.70
2018-03-06T18:51:00.733Z,11.20
2018-03-06T18:53:29.168Z,9.20
2018-03-06T18:55:58.410Z,15.60
2018-03-06T18:58:26.797Z,13.70
2018-03-06T19:14:40.665Z,8.50
2018-03-06T19:17:09.939Z,6.80
2018-03-06T19:19:39.293Z,7.37
2018-03-06T19:22:09.069Z,11.63
2018-03-06T19:24:38.312Z,10.00
2018-03-06T19:27:10.392Z,10.40
2018-03-06T19:29:38.802Z,9.20
2018-03-06T19:32:07.141Z,7.80
2018-03-06T19:34:35.431Z,7.50
2018-03-06T19:37:03.737Z,10.33
2018-03-06T19:39:32.051Z,11.13
2018-03-06T19:42:00.785Z,9.60
2018-03-06T19:44:29.176Z,11.70
2018-03-06T19:46:58.201Z,10.47
2018-03-06T19:49:26.840Z,10.10
2018-03-06T19:51:55.542Z,9.27
2018-03-06T19:54:25.070Z,9.07
2018-03-06T19:56:53.889Z,8.73
2018-03-06T19:59:22.225Z,8.17
2018-03-06T20:01:50.866Z,11.37
2018-03-06T20:04:19.609Z,11.23
2018-03-06T20:06:48.015Z,9.40
2018-03-06T20:09:16.732Z,10.03
2018-03-06T20:11:45.620Z,9.67
2018-03-06T20:14:14.361Z,10.73
2018-03-06T20:16:42.701Z,9.80
2018-03-06T20:19:16.855Z,10.00
2018-03-06T20:21:45.526Z,9.70
2018-03-06T20:24:19.760Z,11.10
2018-03-06T20:26:48.559Z,10.60
2018-03-06T20:29:16.983Z,14.13
2018-03-06T20:31:51.251Z,12.40
2018-03-06T20:34:20.009Z,17.60
2018-03-06T20:36:49.085Z,21.20
2018-03-06T20:39:23.462Z,16.60
2018-03-06T20:41:52.122Z,13.67
2018-03-06T20:44:21.191Z,14.07
2018-03-06T20:46:55.011Z,12.93
2018-03-06T20:49:23.334Z,11.83
2018-03-06T20:51:51.683Z,13.77
2018-03-06T20:54:26.386Z,13.57
2018-03-06T20:56:54.801Z,15.27
2018-03-06T20:59:23.902Z,12.50
2018-03-06T21:01:52.989Z,14.43
2018-03-06T21:04:23.013Z,14.60
2018-03-06T21:06:52.095Z,13.60
2018-03-06T21:09:20.425Z,13.17
2018-03-06T21:11:48.725Z,15.37
2018-03-06T21:14:17.028Z,14.77
2018-03-06T21:16:45.332Z,17.03
2018-03-06T21:19:14.419Z,14.80
2018-03-06T21:21:44.238Z,14.53
2018-03-06T21:24:12.547Z,21.77
2018-03-06T21:26:40.843Z,16.73
2018-03-06T21:29:09.203Z,19.70
2018-03-06T21:31:38.268Z,16.30
2018-03-06T21:34:06.587Z,18.73
2018-03-06T21:36:34.973Z,17.20
2018-03-06T21:39:03.279Z,20.53
2018-03-06T21:41:31.586Z,19.43
2018-03-06T21:43:59.944Z,18.33
2018-03-06T21:46:28.359Z,21.00
2018-03-06T21:48:56.655Z,18.03
2018-03-06T21:51:24.964Z,17.87
2018-03-06T21:53:53.264Z,21.20
2018-03-06T21:56:21.595Z,19.40
2018-03-06T21:58:50.684Z,19.77
2018-03-06T22:01:19.013Z,17.63
2018-03-06T22:03:47.294Z,21.07
2018-03-06T22:06:15.607Z,23.70
2018-03-06T22:08:43.952Z,22.13
2018-03-06T22:11:12.256Z,23.60
2018-03-06T22:13:40.550Z,24.43
2018-03-06T22:16:08.883Z,21.10
2018-03-06T22:18:37.223Z,21.87
2018-03-06T22:21:05.525Z,20.73
2018-03-06T22:23:33.953Z,21.43
2018-03-06T22:26:02.271Z,19.20
2018-03-06T22:28:30.602Z,20.93
2018-03-06T22:30:58.908Z,18.67
2018-03-06T22:33:27.220Z,24.63
2018-03-06T22:35:57.560Z,20.57
2018-03-06T22:38:26.706Z,27.30
2018-03-06T22:40:55.747Z,26.27
2018-03-06T22:43:24.036Z,21.60
2018-03-06T22:45:52.349Z,31.77
2018-03-06T22:48:20.643Z,29.17
2018-03-06T22:50:50.865Z,33.60
2018-03-06T22:53:19.164Z,21.70
2018-03-06T22:55:48.188Z,35.40
2018-03-06T22:58:16.482Z,29.73
2018-03-06T23:00:45.583Z,26.70
2018-03-06T23:03:15.447Z,30.90
2018-03-06T23:05:43.760Z,27.93
2018-03-06T23:08:12.056Z,28.50
2018-03-06T23:10:41.200Z,25.40
2018-03-06T23:13:09.496Z,24.17
2018-03-06T23:15:37.772Z,23.77
2018-03-06T23:18:06.070Z,26.50
2018-03-06T23:20:34.382Z,26.33
2018-03-06T23:23:03.432Z,29.70
2018-03-06T23:25:31.928Z,29.37
2018-03-06T23:28:00.309Z,29.27
2018-03-06T23:30:28.650Z,26.73
2018-03-06T23:32:56.935Z,28.47
2018-03-06T23:35:25.273Z,25.50
2018-03-06T23:37:53.589Z,25.97
2018-03-06T23:40:21.898Z,25.17
2018-03-06T23:42:50.205Z,28.47
2018-03-06T23:45:19.320Z,25.33
2018-03-06T23:47:48.280Z,31.17
2018-03-06T23:50:18.083Z,25.73
2018-03-06T23:52:48.576Z,28.40
2018-03-06T23:55:17.188Z,25.50
2018-03-06T23:57:45.851Z,28.80
